Sky Valley (157, 625) Station Data

Red Flag Warning: No
Fire Weather Zone: 250
SDGE Region: Mountain Empire
Lat/Lon: 32.721/-116.702

Observations

Time Wind Speed/Gust Temp(F) RH Fuel Moist Fuel Temp(F) Dewpt(F) Tmax(F) Tmin(F) Accum Precip 10-min Precip SL Press(mb)
4/26 2:40am 334 1 G 2 50° 76% - - 42° 51.4° 48° - - -
4/26 2:30am 250 2 G 4 50° 76% - - 42° 51.4° 48° - - -
4/26 2:20am 266 2 G 4 49° 78% - - 43° 51.4° 48° - - -
4/26 2:10am 287 2 G 4 49° 77% - - 42° 51.4° 48° - - -
4/26 2:00am 257 3 G 5 49° 78% - - 43° 51.4° 48° - - -
4/26 1:50am 303 2 G 4 49° 77% - - 42° 51.4° 48° - - -
4/26 1:40am 287 1 G 3 49° 78% - - 43° 51.4° 48.7° - - -
4/26 1:30am 284 2 G 3 50° 76% - - 42° 51.4° 48.7° - - -
4/26 1:20am 252 1 G 3 50° 77% - - 43° 51.4° 48.7° - - -
4/26 1:10am 338 3 G 5 49° 77% - - 43° 51.4° 48.7° - - -
4/26 1:00am 317 2 G 4 49° 77% - - 42° 51.4° 48.9° - - -
4/26 12:50am 357 2 G 4 50° 77% - - 43° 51.4° 49° - - -
4/26 12:40am 323 2 G 5 49° 75% - - 42° 51.4° 49° - - -
4/26 12:30am 118 1 G 2 51° 74% - - 43° 51.4° 50.2° - - -
4/26 12:20am 83 1 G 3 51° 74% - - 43° 51.4° 50.3° - - -
4/26 12:10am 343 2 G 3 51° 74% - - 43° 51.3° 50.3° - - -
4/26 12:00am 286 1 G 4 51° 72% - - 43° 62.9° 50° - - -
4/25 11:50pm 239 1 G 2 51° 73% - - 43° 62.9° 50° - - -
4/25 11:40pm 259 2 G 4 51° 74% - - 43° 62.9° 50° - - -
4/25 11:30pm 284 2 G 4 51° 74% - - 43° 62.9° 50° - - -
4/25 11:20pm 265 2 G 3 51° 74% - - 43° 62.9° 50.3° - - -
4/25 11:10pm 300 1 G 2 51° 73% - - 42° 62.9° 50.3° - - -
4/25 11:00pm 283 2 G 3 51° 72% - - 42° 62.9° 50.5° - - -
4/25 10:50pm 354 3 G 4 51° 71% - - 42° 62.9° 50.5° - - -
4/25 10:40pm 9 3 G 4 52° 70% - - 42° 62.9° 50.5° - - -
4/25 10:30pm 342 4 G 6 53° 69% - - 43° 62.9° 50.5° - - -
4/25 10:20pm 273 7 G 9 53° 67% - - 42° 62.9° 50.5° - - -
4/25 10:10pm 277 8 G 10 53° 67% - - 42° 62.9° 50.5° - - -
4/25 10:00pm 275 6 G 9 53° 68% - - 43° 62.9° 50.5° - - -
4/25 9:50pm 268 5 G 6 53° 68% - - 43° 62.9° 50.5° - - -
4/25 9:40pm 269 5 G 7 53° 67% - - 43° 62.9° 50.5° - - -
4/25 9:30pm 262 5 G 7 53° 68% - - 43° 62.9° 50.5° - - -
4/25 9:20pm 271 6 G 10 53° 67% - - 43° 62.9° 50.5° - - -
4/25 9:10pm 274 8 G 11 53° 67% - - 43° 62.9° 50.5° - - -
4/25 9:00pm 282 7 G 11 53° 68% - - 43° 62.9° 50.5° - - -
4/25 8:50pm 282 9 G 12 54° 67% - - 43° 62.9° 50.5° - - -
4/25 8:40pm 278 9 G 12 54° 67% - - 43° 62.9° 50.5° - - -
4/25 8:30pm 286 9 G 12 54° 67% - - 43° 62.9° 50.5° - - -
4/25 8:20pm 279 6 G 9 54° 67% - - 43° 62.9° 50.5° - - -
4/25 8:10pm 278 4 G 8 54° 66% - - 43° 62.9° 50.5° - - -
4/25 8:00pm 280 7 G 11 54° 66% - - 43° 62.9° 50.5° - - -
4/25 7:50pm 288 6 G 10 54° 66% - - 43° 62.9° 50.5° - - -
4/25 7:40pm 264 5 G 9 55° 66% - - 44° 62.9° 50.5° - - -
4/25 7:30pm 279 6 G 8 55° 66% - - 44° 62.9° 50.5° - - -
4/25 7:20pm 273 7 G 13 55° 66% - - 44° 62.9° 50.5° - - -
4/25 7:10pm 265 11 G 14 56° 66% - - 44° 62.9° 50.5° - - -
4/25 7:00pm 266 10 G 14 56° 66% - - 45° 62.9° 50.5° - - -
4/25 6:50pm 275 9 G 14 56° 67% - - 46° 62.9° 50.5° - - -
4/25 6:40pm 259 12 G 16 56° 68% - - 46° 62.9° 50.5° - - -
4/25 6:30pm 261 10 G 16 57° 69% - - 46° 62.9° 50.5° - - -
4/25 6:20pm 262 10 G 15 57° 69% - - 47° 62.9° 50.5° - - -
4/25 6:10pm 256 11 G 16 57° 70% - - 47° 62.9° 50.5° - - -
4/25 6:00pm 264 10 G 16 57° 69% - - 47° 62.9° 50.5° - - -
4/25 5:50pm 269 7 G 12 58° 69% - - 48° 62.9° 50.5° - - -
4/25 5:40pm 249 9 G 13 58° 69% - - 48° 62.9° 50.5° - - -
4/25 5:30pm 252 9 G 15 58° 69% - - 48° 62.9° 50.5° - - -
4/25 5:20pm 246 9 G 14 58° 66% - - 47° 62.9° 50.5° - - -
4/25 5:10pm 267 10 G 16 59° 64% - - 47° 62.9° 50.5° - - -
4/25 5:00pm 244 11 G 16 58° 68% - - 47° 62.9° 50.5° - - -
4/25 4:50pm 234 12 G 18 58° 69% - - 48° 62.9° 50.5° - - -
4/25 4:40pm 229 14 G 19 58° 70% - - 48° 62.9° 50.5° - - -
4/25 4:30pm 232 11 G 18 59° 68% - - 48° 62.9° 50.5° - - -
4/25 4:20pm 238 11 G 16 59° 66% - - 48° 62.9° 50.5° - - -
4/25 4:10pm 264 10 G 15 59° 63% - - 47° 62.9° 50.5° - - -
4/25 4:00pm 250 9 G 17 59° 67% - - 48° 62.9° 50.5° - - -
4/25 3:50pm 230 12 G 18 58° 69% - - 48° 62.9° 50.5° - - -
4/25 3:40pm 241 13 G 19 59° 67% - - 48° 62.9° 50.5° - - -
4/25 3:30pm 250 12 G 18 59° 65% - - 47° 62.9° 50.5° - - -
4/25 3:20pm 252 11 G 18 60° 62% - - 47° 62.9° 50.5° - - -
4/25 3:10pm 259 8 G 14 61° 59% - - 46° 62.9° 50.5° - - -
4/25 3:00pm 278 8 G 13 61° 55% - - 45° 62.9° 50.5° - - -
4/25 2:50pm 282 6 G 12 61° 55% - - 45° 62.9° 50.5° - - -
4/25 2:40pm 256 9 G 17 61° 55% - - 45° 62.9° 50.5° - - -
4/25 2:30pm 257 9 G 15 61° 54% - - 45° 62.9° 50.5° - - -
4/25 2:20pm 289 9 G 19 61° 56% - - 46° 62.9° 50.5° - - -
4/25 2:10pm 270 10 G 19 62° 54% - - 45° 62.9° 50.5° - - -
4/25 2:00pm 280 11 G 18 62° 55% - - 46° 62.7° 50.5° - - -
4/25 1:50pm 264 9 G 17 62° 55% - - 45° 62.7° 50.5° - - -
4/25 1:40pm 254 6 G 12 62° 55% - - 45° 62.7° 50.5° - - -
4/25 1:30pm 271 8 G 16 61° 57% - - 45° 62.7° 50.5° - - -
4/25 1:20pm 269 9 G 18 61° 55% - - 45° 62.7° 50.5° - - -
4/25 1:10pm 280 7 G 17 62° 53% - - 45° 62.7° 50.5° - - -
4/25 1:00pm 292 11 G 19 61° 52% - - 44° 62.7° 50.5° - - -
4/25 12:50pm 284 10 G 20 61° 52% - - 43° 62.7° 50.5° - - -
4/25 12:40pm 294 10 G 20 62° 52% - - 44° 62.7° 50.5° - - -
4/25 12:30pm 285 10 G 19 62° 50% - - 43° 62.7° 50.5° - - -
4/25 12:20pm 303 12 G 19 61° 50% - - 42° 62.7° 50.5° - - -
4/25 12:10pm 296 9 G 18 61° 50% - - 42° 62.7° 50.5° - - -
4/25 12:00pm 263 10 G 20 61° 49% - - 42° 62.7° 50.5° - - -
4/25 11:50am 281 7 G 14 61° 52% - - 43° 62.7° 50.5° - - -
4/25 11:40am 284 8 G 20 60° 52% - - 43° 62.7° 50.5° - - -
4/25 11:30am 262 10 G 24 60° 53% - - 43° 62.7° 50.5° - - -
4/25 11:20am 279 4 G 11 62° 55% - - 45° 62.7° 50.5° - - -
4/25 11:10am 265 9 G 17 59° 58% - - 44° 59.7° 50.5° - - -
4/25 11:00am 294 12 G 21 59° 57% - - 43° 59.4° 50.5° - - -
4/25 10:50am 279 10 G 20 59° 58% - - 44° 59.4° 50.5° - - -
4/25 10:40am 271 9 G 17 58° 62% - - 45° 59.2° 50.5° - - -
4/25 10:30am 274 11 G 17 57° 61% - - 44° 58.4° 50.5° - - -
4/25 10:20am 281 9 G 19 57° 64% - - 45° 58.3° 50.5° - - -
4/25 10:10am 286 10 G 16 57° 64% - - 45° 58.3° 50.5° - - -
4/25 10:00am 263 10 G 17 57° 66% - - 46° 58.3° 50.5° - - -
4/25 9:50am 254 7 G 13 57° 65% - - 46° 58.1° 50.5° - - -
4/25 9:40am 303 7 G 10 56° 65% - - 45° 57.1° 50.5° - - -
4/25 9:30am 266 8 G 12 56° 64% - - 44° 57.1° 50.5° - - -
4/25 9:20am 255 8 G 13 56° 66% - - 45° 56.8° 50.5° - - -
4/25 9:10am 242 7 G 12 55° 70% - - 45° 56.3° 50.5° - - -
4/25 9:00am 221 7 G 13 56° 69% - - 46° 56.3° 50.5° - - -
4/25 8:50am 207 4 G 7 55° 70% - - 46° 56.1° 50.5° - - -
4/25 8:40am 200 2 G 5 54° 73% - - 46° 55° 50.5° - - -
4/25 8:30am 214 3 G 7 54° 74% - - 46° 54.3° 50.5° - - -
4/25 8:20am 224 4 G 7 54° 76% - - 46° 54.1° 50.5° - - -
4/25 8:10am 228 5 G 8 53° 77% - - 46° 53.5° 50.5° - - -
4/25 8:00am 185 3 G 7 53° 79% - - 47° 53.5° 50.5° - - -
4/25 7:50am 201 4 G 7 53° 80% - - 47° 53.3° 50.5° - - -
4/25 7:40am 203 3 G 7 52° 81% - - 47° 52.7° 50.5° - - -
4/25 7:30am 235 4 G 6 52° 83% - - 47° 52.4° 50.5° - - -
4/25 7:20am 179 3 G 6 52° 84% - - 47° 52.2° 50.5° - - -
4/25 7:10am 165 1 G 4 52° 85% - - 47° 52.2° 50.5° - - -
4/25 7:00am 196 0 G 2 52° 86% - - 47° 52° 50.5° - - -
4/25 6:50am 0 0 G 0 51° 86% - - 47° 52° 50.5° - - -
4/25 6:40am 156 1 G 2 51° 86% - - 47° 52° 50.5° - - -
4/25 6:30am 226 1 G 1 51° 86% - - 47° 52° 50.5° - - -
4/25 6:20am 237 0 G 1 51° 86% - - 47° 52° 50.5° - - -
4/25 6:10am 107 2 G 3 51° 86% - - 47° 52° 50.5° - - -
4/25 6:00am 114 1 G 2 51° 86% - - 47° 52° 50.5° - - -
4/25 5:50am 69 3 G 4 51° 86% - - 47° 52° 50.5° - - -
4/25 5:40am 90 1 G 3 51° 86% - - 47° 52° 50.5° - - -
4/25 5:30am 45 1 G 3 51° 85% - - 47° 52° 50.5° - - -
4/25 5:20am 113 2 G 4 51° 85% - - 47° 52° 50.5° - - -
4/25 5:10am 133 2 G 4 51° 85% - - 47° 52° 50.5° - - -
4/25 5:00am 158 3 G 4 51° 86% - - 47° 52° 50.5° - - -
4/25 4:50am 173 3 G 5 51° 86% - - 47° 52° 50.5° - - -
4/25 4:40am 171 3 G 6 51° 86% - - 47° 52° 50.5° - - -
4/25 4:30am 158 3 G 6 51° 86% - - 47° 52° 50.5° - - -
4/25 4:20am 146 3 G 5 51° 86% - - 47° 52° 50.5° - - -
4/25 4:10am 162 2 G 5 51° 86% - - 47° 52° 50.5° - - -
4/25 4:00am 155 2 G 5 51° 86% - - 47° 52° 50.5° - - -
4/25 3:50am 168 3 G 6 51° 87% - - 47° 52° 50.5° - - -
4/25 3:40am 178 4 G 7 51° 87% - - 47° 52° 50.5° - - -
4/25 3:30am 183 5 G 8 51° 88% - - 47° 52° 50.5° - - -
4/25 3:20am 169 6 G 10 51° 88% - - 47° 52° 50.5° - - -
4/25 3:10am 171 6 G 10 51° 88% - - 47° 52° 50.5° - - -
4/25 3:00am 168 3 G 6 51° 87% - - 47° 52° 50.9° - - -
4/25 2:50am 164 4 G 7 51° 87% - - 47° 52° 50.9° - - -
4/25 2:40am 196 3 G 6 51° 86% - - 47° 52° 50.9° - - -
4/25 2:30am 186 3 G 6 51° 86% - - 47° 52° 50.9° - - -
4/25 2:20am 211 5 G 9 51° 85% - - 47° 52° 50.9° - - -
4/25 2:10am 186 4 G 7 51° 85% - - 47° 52° 50.9° - - -
4/25 2:00am 163 4 G 8 51° 85% - - 47° 52° 50.9° - - -
4/25 1:50am 151 4 G 6 51° 85% - - 47° 52° 50.9° - - -
4/25 1:40am 148 4 G 5 52° 85% - - 47° 52° 50.9° - - -
4/25 1:30am 181 2 G 4 52° 85% - - 47° 52° 50.9° - - -
4/25 1:20am 148 2 G 4 51° 85% - - 47° 52° 50.9° - - -
4/25 1:10am 168 4 G 6 51° 85% - - 47° 52° 50.9° - - -
4/25 1:00am 156 3 G 6 51° 85% - - 47° 52° 50.9° - - -
4/25 12:50am 164 3 G 4 51° 85% - - 47° 52° 50.9° - - -
4/25 12:40am 233 4 G 6 51° 85% - - 47° 52° 50.9° - - -
4/25 12:30am 219 5 G 10 51° 85% - - 47° 52° 50.9° - - -
4/25 12:20am 201 6 G 10 51° 84% - - 47° 52° 50.9° - - -
4/25 12:10am 189 6 G 11 52° 82% - - 46° 52° 51.4° - - -
4/25 12:00am 183 4 G 8 52° 81% - - 46° 66° 43.8° - - -
4/24 11:50pm 220 6 G 8 52° 82% - - 46° 66° 43.8° - - -
4/24 11:40pm 232 6 G 10 52° 82% - - 47° 66° 43.8° - - -
4/24 11:30pm 240 7 G 12 52° 80% - - 46° 66° 43.8° - - -
4/24 11:20pm 251 5 G 8 52° 81% - - 46° 66° 43.8° - - -
4/24 11:10pm 246 2 G 10 52° 83% - - 47° 66° 43.8° - - -
4/24 11:00pm 90 0 G 1 52° 83% - - 47° 66° 43.8° - - -
4/24 10:50pm 246 1 G 3 51° 84% - - 46° 66° 43.8° - - -
4/24 10:40pm 243 2 G 3 51° 83% - - 46° 66° 43.8° - - -
4/24 10:30pm 261 2 G 4 51° 82% - - 45° 66° 43.8° - - -
4/24 10:20pm 291 2 G 4 51° 82% - - 45° 66° 43.8° - - -
4/24 10:10pm 273 1 G 2 51° 82% - - 45° 66° 43.8° - - -
4/24 10:00pm 252 2 G 4 51° 81% - - 45° 66° 43.8° - - -
4/24 9:50pm 255 5 G 7 51° 81% - - 45° 66° 43.8° - - -
4/24 9:40pm 254 4 G 5 51° 81% - - 45° 66° 43.8° - - -
4/24 9:30pm 217 3 G 5 52° 79% - - 46° 66° 43.8° - - -
4/24 9:20pm 171 4 G 6 53° 78% - - 46° 66° 43.8° - - -
4/24 9:10pm 229 3 G 7 53° 78% - - 46° 66° 43.8° - - -
4/24 9:00pm 248 4 G 7 53° 79% - - 46° 66° 43.8° - - -
4/24 8:50pm 252 3 G 7 52° 79% - - 46° 66° 43.8° - - -
4/24 8:40pm 253 3 G 8 53° 79% - - 47° 66° 43.8° - - -
4/24 8:30pm 198 2 G 4 53° 79% - - 47° 66° 43.8° - - -
4/24 8:20pm 301 4 G 8 54° 78% - - 47° 66° 43.8° - - -
4/24 8:10pm 286 3 G 6 55° 73% - - 46° 66° 43.8° - - -
4/24 8:00pm 276 5 G 7 54° 74% - - 46° 66° 43.8° - - -
4/24 7:50pm 273 6 G 10 55° 76% - - 47° 66° 43.8° - - -
4/24 7:40pm 282 8 G 11 55° 77% - - 48° 66° 43.8° - - -
4/24 7:30pm 289 11 G 15 55° 78% - - 49° 66° 43.8° - - -
4/24 7:20pm 288 9 G 12 56° 76% - - 48° 66° 43.8° - - -
4/24 7:10pm 283 10 G 13 56° 74% - - 48° 66° 43.8° - - -
4/24 7:00pm 283 10 G 13 57° 70% - - 47° 66° 43.8° - - -
4/24 6:50pm 270 11 G 13 57° 69% - - 47° 66° 43.8° - - -
4/24 6:40pm 262 11 G 14 58° 68% - - 47° 66° 43.8° - - -
4/24 6:30pm 259 10 G 13 58° 67% - - 47° 66° 43.8° - - -
4/24 6:20pm 262 10 G 13 58° 67% - - 48° 66° 43.8° - - -
4/24 6:10pm 260 9 G 12 60° 65% - - 48° 66° 43.8° - - -
4/24 6:00pm 261 8 G 12 59° 65% - - 48° 66° 43.8° - - -